Terminal Aerodrome Forecast
Issued by NWS

Home | Current Version | Previous Version | Text Only | Print | Product List | Glossary On
Versions: 1 2 3 4 5 6 7 8 9 10 11 12 13 14 15 16 17 18 19
000
FTUS45 KLKN 242320
TAFWMC
TAF
KWMC 242320Z 2500/2524 25012KT P6SM VCSH SCT030 BKN040
     FM250300 27006KT P6SM BKN050
     FM251800 18010G18KT P6SM SCT120=

USA.gov is the U.S. government's official web portal to all federal, state and local government web resources and services.